createdAt,value
2022-10-07T00:02:33.734Z,102216.16
2022-10-07T00:07:35.754Z,102200.44
2022-10-07T00:12:37.523Z,102211.75
2022-10-07T00:17:39.316Z,102203.88
2022-10-07T00:22:41.057Z,102209.09
2022-10-07T00:27:42.964Z,102194.34
2022-10-07T00:32:45.030Z,102188.19
2022-10-07T00:37:47.116Z,102188.97
2022-10-07T00:42:48.867Z,102176.53
2022-10-07T00:47:51.593Z,102163.31
2022-10-07T00:52:57.691Z,102155.41
2022-10-07T00:58:01.520Z,102141.50
2022-10-07T01:03:03.162Z,102142.25
2022-10-07T01:08:07.112Z,102142.06
2022-10-07T01:13:14.693Z,102136.72
2022-10-07T01:18:55.360Z,102127.00
2022-10-07T01:24:27.348Z,102123.41
2022-10-07T01:29:35.576Z,102116.25
2022-10-07T01:34:37.287Z,102114.34
2022-10-07T01:39:42.363Z,102105.44
2022-10-07T01:44:44.699Z,102099.25
2022-10-07T01:49:46.676Z,102086.94
2022-10-07T01:54:59.077Z,102083.25
2022-10-07T02:00:10.635Z,102078.84
2022-10-07T02:05:31.251Z,102067.47
2022-10-07T02:10:37.060Z,102067.19
2022-10-07T02:15:47.879Z,102071.16
2022-10-07T02:20:50.521Z,102058.66
2022-10-07T02:25:52.404Z,102058.59
2022-10-07T02:30:56.110Z,102051.63
2022-10-07T02:36:07.318Z,102050.56
2022-10-07T02:41:31.139Z,102043.47
2022-10-07T02:46:42.316Z,102045.09
2022-10-07T02:51:50.303Z,102044.03
2022-10-07T02:56:52.086Z,102045.75
2022-10-07T03:01:55.805Z,102033.63
2022-10-07T03:06:58.734Z,102038.03
2022-10-07T03:12:00.666Z,102032.94
2022-10-07T03:17:02.954Z,102026.97
2022-10-07T03:22:05.653Z,102023.63
2022-10-07T03:27:09.530Z,102010.69
2022-10-07T03:32:15.009Z,102012.59
2022-10-07T03:37:17.441Z,102005.69
2022-10-07T03:42:20.922Z,102005.69
2022-10-07T03:47:22.979Z,101995.16
2022-10-07T03:52:24.835Z,101997.84
2022-10-07T03:57:47.087Z,101987.31
2022-10-07T04:02:49.360Z,101977.75
2022-10-07T04:07:52.513Z,101983.00
2022-10-07T04:12:55.756Z,101974.25
2022-10-07T04:17:58.521Z,101973.25
2022-10-07T04:23:01.029Z,101980.94
2022-10-07T04:28:07.257Z,101961.78
2022-10-07T04:33:10.738Z,101961.91
2022-10-07T04:38:13.192Z,101967.16
2022-10-07T04:43:20.545Z,101961.13
2022-10-07T04:48:27.632Z,101967.31
2022-10-07T04:53:29.971Z,101957.66
2022-10-07T04:58:31.810Z,101959.38
2022-10-07T05:03:36.092Z,101949.81
2022-10-07T05:08:37.831Z,101949.81
2022-10-07T05:13:41.011Z,101952.41
2022-10-07T05:18:42.981Z,101948.09
2022-10-07T05:23:47.267Z,101942.19
2022-10-07T05:28:53.858Z,101939.72
2022-10-07T05:34:02.059Z,101935.38
2022-10-07T05:39:03.992Z,101931.22
2022-10-07T05:44:27.286Z,101928.78
2022-10-07T05:49:32.664Z,101925.47
2022-10-07T05:54:34.715Z,101926.53
2022-10-07T05:59:37.366Z,101923.88
2022-10-07T06:04:39.201Z,101917.72
2022-10-07T06:09:59.548Z,101921.97
2022-10-07T06:15:01.286Z,101911.50
2022-10-07T06:20:03.029Z,101914.13
2022-10-07T06:25:05.157Z,101924.63
2022-10-07T06:30:08.164Z,101918.69
2022-10-07T06:35:09.949Z,101923.28
2022-10-07T06:40:11.937Z,101935.66
2022-10-07T06:45:14.370Z,101929.78
2022-10-07T06:50:16.283Z,101926.47
2022-10-07T06:55:18.363Z,101932.91
2022-10-07T07:00:20.398Z,101925.56
2022-10-07T07:05:22.764Z,101923.22
2022-10-07T07:10:25.548Z,101924.44
2022-10-07T07:15:28.416Z,101924.94
2022-10-07T07:20:35.728Z,101919.28
2022-10-07T07:25:39.044Z,101920.63
2022-10-07T07:30:40.856Z,101909.78
2022-10-07T07:35:44.850Z,101906.94
2022-10-07T07:40:46.998Z,101894.50
2022-10-07T07:45:49.159Z,101894.09
2022-10-07T07:50:50.933Z,101893.66
2022-10-07T07:55:56.353Z,101892.25
2022-10-07T08:01:06.842Z,101893.66
2022-10-07T08:06:09.628Z,101892.41
2022-10-07T08:11:19.311Z,101887.75
2022-10-07T08:16:23.474Z,101884.66
2022-10-07T08:21:27.382Z,101872.03
2022-10-07T08:26:33.553Z,101865.41
2022-10-07T08:31:37.233Z,101868.34
2022-10-07T08:36:39.648Z,101857.31
2022-10-07T08:41:45.943Z,101855.03
2022-10-07T08:47:18.114Z,101857.19
2022-10-07T08:52:25.619Z,101848.78
2022-10-07T08:57:37.277Z,101840.38
2022-10-07T09:02:55.172Z,101836.38
2022-10-07T09:07:58.020Z,101822.78
2022-10-07T09:13:21.328Z,101815.22
2022-10-07T09:18:39.165Z,101807.59
2022-10-07T09:23:40.781Z,101803.44
2022-10-07T09:28:42.441Z,101795.03
2022-10-07T09:33:45.841Z,101789.19
2022-10-07T09:38:49.698Z,101792.97
2022-10-07T09:43:53.867Z,101788.81
2022-10-07T09:48:55.528Z,101781.16
2022-10-07T09:54:04.495Z,101772.66
2022-10-07T09:59:19.037Z,101767.59
2022-10-07T10:04:24.853Z,101760.69
2022-10-07T10:09:26.470Z,101759.13
2022-10-07T10:14:48.670Z,101757.50
2022-10-07T10:19:50.403Z,101755.00
2022-10-07T10:25:10.657Z,101740.25
2022-10-07T10:30:20.770Z,101729.00
2022-10-07T10:35:28.268Z,101720.34
2022-10-07T10:40:41.820Z,101711.69
2022-10-07T10:46:11.449Z,101701.25
2022-10-07T10:51:32.244Z,101696.94
2022-10-07T10:56:48.172Z,101679.44
2022-10-07T11:02:14.854Z,101667.22
2022-10-07T11:07:35.862Z,101660.25
2022-10-07T11:12:39.942Z,101640.09
2022-10-07T11:17:41.697Z,101632.22
2022-10-07T11:22:47.834Z,101630.47
2022-10-07T11:27:50.598Z,101622.56
2022-10-07T11:33:08.211Z,101616.47
2022-10-07T11:38:09.678Z,101602.41
2022-10-07T11:43:40.901Z,101587.50
2022-10-07T11:49:00.777Z,101584.84
2022-10-07T11:54:03.146Z,101577.81
2022-10-07T11:59:06.424Z,101554.94
2022-10-07T12:04:30.025Z,101553.09
2022-10-07T12:09:53.738Z,101537.13
2022-10-07T12:15:02.096Z,101538.75
2022-10-07T12:20:34.874Z,101538.44
2022-10-07T12:25:36.830Z,101525.03
2022-10-07T12:30:42.202Z,101510.72
2022-10-07T12:35:45.563Z,101504.41
2022-10-07T12:41:06.641Z,101485.19
2022-10-07T12:46:11.538Z,101475.84
2022-10-07T12:51:19.318Z,101474.28
2022-10-07T12:56:22.518Z,101470.78
2022-10-07T13:01:42.947Z,101464.41
2022-10-07T13:07:22.379Z,101460.03
2022-10-07T13:12:37.766Z,101457.19
2022-10-07T13:18:10.511Z,101450.44
2022-10-07T13:23:26.799Z,101430.50
2022-10-07T13:28:48.983Z,101431.16
2022-10-07T13:33:51.276Z,101413.66
2022-10-07T13:38:54.795Z,101419.47
2022-10-07T13:43:59.362Z,101413.88
2022-10-07T13:49:01.170Z,101399.22
2022-10-07T13:54:04.577Z,101387.50
2022-10-07T13:59:06.777Z,101380.06
2022-10-07T14:04:14.403Z,101380.75
2022-10-07T14:09:21.238Z,101358.53
2022-10-07T14:14:26.145Z,101363.97
2022-10-07T14:19:31.785Z,101364.34
2022-10-07T14:24:33.467Z,101356.97
2022-10-07T14:29:37.618Z,101349.03
2022-10-07T14:35:01.799Z,101335.63
2022-10-07T14:40:03.688Z,101328.72
2022-10-07T14:45:08.116Z,101315.94
2022-10-07T14:50:12.731Z,101324.19
2022-10-07T14:55:24.555Z,101311.88
2022-10-07T15:00:29.167Z,101305.78
2022-10-07T15:05:33.517Z,101296.53
2022-10-07T15:10:35.158Z,101295.66
2022-10-07T15:15:43.425Z,101287.19
2022-10-07T15:20:45.102Z,101294.59
2022-10-07T15:25:46.799Z,101280.38
2022-10-07T15:30:48.553Z,101280.09
2022-10-07T15:35:50.176Z,101269.72
2022-10-07T15:40:53.379Z,101270.00
2022-10-07T15:46:01.121Z,101262.38
2022-10-07T15:51:04.765Z,101260.91
2022-10-07T15:56:07.135Z,101263.81
2022-10-07T16:01:08.771Z,101251.84
2022-10-07T16:06:18.322Z,101259.13
2022-10-07T16:11:20.068Z,101257.56
2022-10-07T16:16:23.555Z,101257.78
2022-10-07T16:21:35.528Z,101242.22
2022-10-07T16:26:37.463Z,101242.44
2022-10-07T16:31:40.522Z,101232.97
2022-10-07T16:36:45.601Z,101233.13
2022-10-07T16:41:48.428Z,101215.69
2022-10-07T16:46:50.205Z,101224.69
2022-10-07T16:51:52.984Z,101210.81
2022-10-07T16:56:54.612Z,101213.59
2022-10-07T17:01:56.761Z,101223.41
2022-10-07T17:06:58.571Z,101210.44
2022-10-07T17:12:00.253Z,101220.16
2022-10-07T17:17:03.926Z,101213.25
2022-10-07T17:22:05.577Z,101208.91
2022-10-07T17:27:08.846Z,101207.16
2022-10-07T17:32:11.317Z,101210.69
2022-10-07T17:37:13.178Z,101212.47
2022-10-07T17:42:14.972Z,101215.06
2022-10-07T17:47:16.635Z,101201.06
2022-10-07T17:52:22.884Z,101207.16
2022-10-07T17:57:27.262Z,101197.50
2022-10-07T18:02:28.902Z,101200.03
2022-10-07T18:07:30.560Z,101195.66
2022-10-07T18:12:50.991Z,101197.34
2022-10-07T18:17:52.628Z,101189.41
2022-10-07T18:22:57.537Z,101198.06
2022-10-07T18:28:01.773Z,101190.97
2022-10-07T18:33:03.530Z,101187.41
2022-10-07T18:38:05.212Z,101182.06
2022-10-07T18:43:06.924Z,101178.50
2022-10-07T18:48:08.547Z,101174.91
2022-10-07T18:53:10.260Z,101173.94
2022-10-07T18:58:11.893Z,101177.28
2022-10-07T19:03:13.547Z,101175.44
2022-10-07T19:08:15.171Z,101164.00
2022-10-07T19:13:35.347Z,101160.41
2022-10-07T19:18:38.277Z,101155.06
2022-10-07T19:23:40.536Z,101154.06
2022-10-07T19:28:42.335Z,101152.16
2022-10-07T19:33:47.216Z,101152.03
2022-10-07T19:38:52.416Z,101161.53
2022-10-07T19:43:54.092Z,101156.22
2022-10-07T19:48:56.855Z,101152.66
2022-10-07T19:53:59.047Z,101142.13
2022-10-07T19:59:11.855Z,101137.63
2022-10-07T20:04:18.787Z,101137.59
2022-10-07T20:09:20.594Z,101140.13
2022-10-07T20:14:22.236Z,101139.16
2022-10-07T20:19:23.960Z,101136.47
2022-10-07T20:24:26.457Z,101138.06
2022-10-07T20:29:28.226Z,101127.63
2022-10-07T20:34:29.848Z,101126.69
2022-10-07T20:39:49.801Z,101121.34
2022-10-07T20:44:51.699Z,101122.06
2022-10-07T20:49:55.453Z,101110.56
2022-10-07T20:54:57.145Z,101113.25
2022-10-07T20:59:58.895Z,101106.38
2022-10-07T21:05:00.573Z,101100.28
2022-10-07T21:10:02.221Z,101095.00
2022-10-07T21:15:04.093Z,101088.09
2022-10-07T21:20:07.067Z,101086.41
2022-10-07T21:25:11.724Z,101086.47
2022-10-07T21:30:13.475Z,101091.59
2022-10-07T21:35:15.202Z,101076.75
2022-10-07T21:40:16.818Z,101071.69
2022-10-07T21:45:18.434Z,101063.09
2022-10-07T21:50:20.031Z,101064.84
2022-10-07T21:55:21.684Z,101053.53
2022-10-07T22:00:23.385Z,101049.16
2022-10-07T22:05:25.054Z,101048.25
2022-10-07T22:10:26.808Z,101048.22
2022-10-07T22:15:28.582Z,101038.66
2022-10-07T22:20:30.685Z,101026.47
2022-10-07T22:25:32.383Z,101020.31
2022-10-07T22:30:34.017Z,101020.22
2022-10-07T22:35:38.973Z,101012.41
2022-10-07T22:40:40.590Z,101004.56
2022-10-07T22:45:43.272Z,101007.16
2022-10-07T22:50:44.915Z,100999.25
2022-10-07T22:55:46.582Z,101000.06
2022-10-07T23:00:50.540Z,100995.63
2022-10-07T23:05:52.155Z,100976.44
2022-10-07T23:10:57.568Z,100974.69
2022-10-07T23:16:00.432Z,100973.81
2022-10-07T23:21:02.990Z,100973.81
2022-10-07T23:26:10.181Z,100972.94
2022-10-07T23:31:14.249Z,100966.00
2022-10-07T23:36:16.499Z,100971.13
2022-10-07T23:41:20.093Z,100958.94
2022-10-07T23:46:22.603Z,100947.53
2022-10-07T23:51:25.736Z,100944.06
2022-10-07T23:56:27.454Z,100950.09
